createdAt,value
2019-05-20T00:00:40.161Z,1.77
2019-05-20T00:03:09.957Z,2.02
2019-05-20T00:05:39.765Z,2.05
2019-05-20T00:08:09.433Z,1.87
2019-05-20T00:10:39.053Z,2.20
2019-05-20T00:13:08.703Z,1.90
2019-05-20T00:15:38.396Z,1.98
2019-05-20T00:18:08.051Z,1.60
2019-05-20T00:20:37.671Z,1.80
2019-05-20T00:23:07.340Z,1.37
2019-05-20T00:25:37.015Z,1.62
2019-05-20T00:28:06.630Z,1.50
2019-05-20T00:30:36.293Z,1.42
2019-05-20T00:33:05.993Z,1.45
2019-05-20T00:35:36.040Z,1.62
2019-05-20T00:38:05.667Z,1.55
2019-05-20T00:40:35.460Z,1.35
2019-05-20T00:43:05.086Z,1.30
2019-05-20T00:45:34.803Z,1.47
2019-05-20T00:48:04.422Z,1.40
2019-05-20T00:50:35.403Z,1.40
2019-05-20T00:53:05.094Z,1.45
2019-05-20T00:55:36.882Z,1.42
2019-05-20T00:58:06.529Z,1.40
2019-05-20T01:00:36.929Z,1.50
2019-05-20T01:03:06.721Z,1.62
2019-05-20T01:05:36.342Z,1.47
2019-05-20T01:08:06.057Z,1.50
2019-05-20T01:10:35.685Z,1.40
2019-05-20T01:13:08.020Z,1.47
2019-05-20T01:15:37.645Z,1.50
2019-05-20T01:18:07.312Z,1.35
2019-05-20T01:20:36.949Z,1.60
2019-05-20T01:23:06.841Z,1.62
2019-05-20T01:25:36.483Z,1.40
2019-05-20T01:28:06.106Z,1.67
2019-05-20T01:30:35.814Z,1.60
2019-05-20T01:33:13.933Z,1.70
2019-05-20T01:35:36.881Z,1.62
2019-05-20T01:38:06.507Z,1.55
2019-05-20T01:40:36.149Z,1.40
2019-05-20T01:43:05.785Z,1.35
2019-05-20T01:45:35.433Z,1.60
2019-05-20T01:48:05.079Z,1.20
2019-05-20T01:50:34.770Z,1.60
2019-05-20T01:53:04.429Z,1.22
2019-05-20T01:55:34.042Z,1.50
2019-05-20T01:58:03.691Z,1.27
2019-05-20T02:00:33.324Z,1.40
2019-05-20T02:03:02.962Z,1.40
2019-05-20T02:05:32.593Z,1.40
2019-05-20T02:08:02.604Z,1.80
2019-05-20T02:10:32.224Z,1.60
2019-05-20T02:13:01.844Z,1.20
2019-05-20T02:15:33.132Z,1.80
2019-05-20T02:18:02.749Z,1.55
2019-05-20T02:20:32.401Z,1.82
2019-05-20T02:23:15.474Z,1.75
2019-05-20T02:25:47.513Z,1.75
2019-05-20T02:28:17.475Z,2.00
2019-05-20T02:30:47.191Z,1.62
2019-05-20T02:33:16.817Z,1.95
2019-05-20T02:35:46.524Z,2.10
2019-05-20T02:38:16.144Z,1.90
2019-05-20T02:40:45.838Z,2.00
2019-05-20T02:43:15.695Z,2.05
2019-05-20T02:45:45.383Z,2.15
2019-05-20T02:48:15.101Z,2.37
2019-05-20T02:50:44.727Z,1.70
2019-05-20T02:53:14.441Z,2.20
2019-05-20T02:55:44.095Z,1.90
2019-05-20T02:58:13.792Z,2.00
2019-05-20T03:00:43.485Z,2.10
2019-05-20T03:03:13.134Z,1.87
2019-05-20T03:05:42.825Z,2.20
2019-05-20T03:08:12.444Z,2.12
2019-05-20T03:10:42.763Z,2.00
2019-05-20T03:13:12.454Z,1.80
2019-05-20T03:15:42.100Z,1.87
2019-05-20T03:18:11.727Z,1.65
2019-05-20T03:20:41.393Z,1.95
2019-05-20T03:23:11.614Z,1.72
2019-05-20T03:25:41.581Z,1.70
2019-05-20T03:28:11.298Z,1.65
2019-05-20T03:30:40.941Z,1.82
2019-05-20T03:33:10.562Z,1.92
2019-05-20T03:35:40.261Z,1.45
2019-05-20T03:38:09.900Z,1.87
2019-05-20T03:40:39.510Z,2.10
2019-05-20T03:43:09.237Z,1.85
2019-05-20T03:45:38.858Z,1.65
2019-05-20T03:48:08.510Z,1.62
2019-05-20T03:50:38.142Z,2.08
2019-05-20T03:53:07.793Z,1.67
2019-05-20T03:55:37.395Z,1.92
2019-05-20T03:58:07.038Z,1.90
2019-05-20T04:00:49.459Z,1.65
2019-05-20T04:03:19.282Z,1.70
2019-05-20T04:05:49.116Z,1.90
2019-05-20T04:08:18.742Z,1.75
2019-05-20T04:10:48.390Z,1.52
2019-05-20T04:13:18.155Z,1.50
2019-05-20T04:15:47.807Z,1.70
2019-05-20T04:18:17.500Z,1.45
2019-05-20T04:20:47.162Z,1.60
2019-05-20T04:23:16.844Z,1.70
2019-05-20T04:25:46.503Z,1.77
2019-05-20T04:28:16.165Z,1.67
2019-05-20T04:30:45.826Z,1.62
2019-05-20T04:33:15.549Z,1.60
2019-05-20T04:35:49.486Z,1.77
2019-05-20T04:38:16.541Z,1.90
2019-05-20T04:40:46.175Z,2.08
2019-05-20T04:43:15.815Z,1.70
2019-05-20T04:45:45.567Z,2.25
2019-05-20T04:48:15.226Z,2.08
2019-05-20T04:50:44.848Z,2.00
2019-05-20T04:53:14.524Z,2.12
2019-05-20T04:55:44.178Z,2.08
2019-05-20T04:58:13.776Z,1.80
2019-05-20T05:00:53.002Z,1.80
2019-05-20T05:03:23.797Z,2.10
2019-05-20T05:05:53.773Z,2.00
2019-05-20T05:08:23.920Z,2.17
2019-05-20T05:10:53.884Z,2.10
2019-05-20T05:13:24.707Z,2.20
2019-05-20T05:15:54.553Z,2.85
2019-05-20T05:18:24.389Z,3.17
2019-05-20T05:20:54.257Z,3.47
2019-05-20T05:23:24.586Z,2.30
2019-05-20T05:25:54.415Z,2.10
2019-05-20T05:28:24.194Z,2.30
2019-05-20T05:30:54.193Z,2.42
2019-05-20T05:33:23.907Z,1.95
2019-05-20T05:35:53.981Z,2.47
2019-05-20T05:38:23.830Z,2.47
2019-05-20T05:40:53.591Z,2.52
2019-05-20T05:43:23.235Z,2.20
2019-05-20T05:45:52.859Z,2.30
2019-05-20T05:48:23.027Z,2.30
2019-05-20T05:50:52.713Z,1.98
2019-05-20T05:53:22.411Z,2.17
2019-05-20T05:55:52.061Z,2.30
2019-05-20T05:58:21.685Z,2.30
2019-05-20T06:00:51.414Z,2.40
2019-05-20T06:03:21.043Z,2.27
2019-05-20T06:05:50.670Z,2.50
2019-05-20T06:08:20.325Z,2.25
2019-05-20T06:10:50.006Z,2.02
2019-05-20T06:13:19.627Z,2.50
2019-05-20T06:15:49.276Z,2.40
2019-05-20T06:18:18.900Z,2.22
2019-05-20T06:20:48.575Z,2.20
2019-05-20T06:23:18.204Z,2.37
2019-05-20T06:25:47.837Z,2.40
2019-05-20T06:28:17.485Z,2.08
2019-05-20T06:30:47.742Z,2.40
2019-05-20T06:33:17.554Z,2.50
2019-05-20T06:35:47.912Z,2.30
2019-05-20T06:38:19.940Z,2.55
2019-05-20T06:40:49.569Z,3.00
2019-05-20T06:43:19.329Z,2.55
2019-05-20T06:45:48.945Z,2.37
2019-05-20T06:48:18.609Z,2.87
2019-05-20T06:50:48.225Z,2.62
2019-05-20T06:53:17.845Z,3.10
2019-05-20T06:55:47.492Z,2.90
2019-05-20T06:58:17.126Z,2.60
2019-05-20T07:00:46.769Z,2.62
2019-05-20T07:03:16.391Z,2.72
2019-05-20T07:05:46.099Z,3.10
2019-05-20T07:08:15.716Z,2.90
2019-05-20T07:10:46.033Z,2.90
2019-05-20T07:13:16.293Z,2.90
2019-05-20T07:15:46.286Z,2.95
2019-05-20T07:18:15.916Z,2.92
2019-05-20T07:20:45.591Z,3.00
2019-05-20T07:23:15.209Z,2.83
2019-05-20T07:25:44.832Z,3.12
2019-05-20T07:28:14.553Z,3.72
2019-05-20T07:30:44.417Z,3.45
2019-05-20T07:33:14.139Z,3.62
2019-05-20T07:35:44.330Z,4.42
2019-05-20T07:38:13.976Z,4.00
2019-05-20T07:40:43.605Z,4.97
2019-05-20T07:43:13.325Z,4.65
2019-05-20T07:45:43.750Z,5.53
2019-05-20T07:48:13.717Z,5.47
2019-05-20T07:50:44.366Z,6.60
2019-05-20T07:53:14.976Z,7.75
2019-05-20T07:55:58.253Z,7.25
2019-05-20T07:58:33.752Z,7.50
2019-05-20T08:01:03.809Z,7.75
2019-05-20T08:03:33.485Z,7.10
2019-05-20T08:06:03.140Z,8.10
2019-05-20T08:08:33.129Z,7.83
2019-05-20T08:11:03.042Z,8.20
2019-05-20T08:13:32.734Z,9.63
2019-05-20T08:16:02.409Z,8.93
2019-05-20T08:18:32.105Z,10.15
2019-05-20T08:21:01.753Z,9.23
2019-05-20T08:23:31.376Z,9.78
2019-05-20T08:26:01.217Z,9.80
2019-05-20T08:28:30.999Z,9.43
2019-05-20T08:31:00.612Z,10.03
2019-05-20T08:33:30.457Z,10.82
2019-05-20T08:36:00.122Z,11.12
2019-05-20T08:38:29.787Z,11.15
2019-05-20T08:40:59.505Z,10.18
2019-05-20T08:43:29.193Z,11.25
2019-05-20T08:45:58.855Z,10.70
2019-05-20T08:48:28.533Z,12.13
2019-05-20T08:50:58.206Z,11.12
2019-05-20T08:53:27.904Z,10.95
2019-05-20T08:55:57.534Z,11.70
2019-05-20T08:58:27.143Z,11.15
2019-05-20T09:00:56.798Z,10.32
2019-05-20T09:03:30.178Z,10.35
2019-05-20T09:05:57.937Z,10.93
2019-05-20T09:08:27.763Z,11.00
2019-05-20T09:10:57.422Z,11.08
2019-05-20T09:13:27.221Z,11.70
2019-05-20T09:15:56.896Z,11.35
2019-05-20T09:18:26.515Z,11.22
2019-05-20T09:20:56.162Z,11.83
2019-05-20T09:23:25.796Z,11.38
2019-05-20T09:25:55.461Z,11.60
2019-05-20T09:28:25.859Z,11.97
2019-05-20T09:30:55.963Z,13.55
2019-05-20T09:33:26.779Z,12.05
2019-05-20T09:35:56.465Z,12.53
2019-05-20T09:38:26.122Z,12.55
2019-05-20T09:40:55.796Z,12.23
2019-05-20T09:43:25.481Z,14.50
2019-05-20T09:46:06.146Z,13.10
2019-05-20T09:48:26.492Z,12.70
2019-05-20T09:50:56.191Z,13.45
2019-05-20T09:53:25.910Z,13.60
2019-05-20T09:55:55.561Z,13.80
2019-05-20T09:58:25.285Z,14.05
2019-05-20T10:00:55.040Z,13.95
2019-05-20T10:03:24.711Z,14.85
2019-05-20T10:05:54.411Z,14.85
2019-05-20T10:08:37.527Z,14.60
2019-05-20T10:10:59.424Z,13.35
2019-05-20T10:13:26.955Z,13.48
2019-05-20T10:15:56.606Z,13.55
2019-05-20T10:18:36.716Z,13.50
2019-05-20T10:20:57.674Z,13.62
2019-05-20T10:23:27.309Z,14.87
2019-05-20T10:25:57.028Z,12.98
2019-05-20T10:28:26.640Z,13.40
2019-05-20T10:30:56.322Z,13.45
2019-05-20T10:33:26.067Z,13.18
2019-05-20T10:35:55.715Z,13.32
2019-05-20T10:38:25.336Z,13.40
2019-05-20T10:40:55.005Z,13.90
2019-05-20T10:43:24.625Z,13.60
2019-05-20T10:45:54.300Z,13.83
2019-05-20T10:48:23.934Z,14.10
2019-05-20T10:50:53.632Z,14.00
2019-05-20T10:53:23.363Z,13.25
2019-05-20T10:55:52.995Z,13.25
2019-05-20T10:58:22.665Z,13.83
2019-05-20T11:01:02.512Z,13.22
2019-05-20T11:03:23.806Z,13.38
2019-05-20T11:05:53.496Z,15.45
2019-05-20T11:08:23.224Z,14.78
2019-05-20T11:10:52.968Z,13.05
2019-05-20T11:13:22.657Z,14.25
2019-05-20T11:15:52.372Z,14.38
2019-05-20T11:18:22.229Z,15.95
2019-05-20T11:20:51.932Z,14.18
2019-05-20T11:23:21.562Z,15.75
2019-05-20T11:25:51.209Z,16.10
2019-05-20T11:28:20.829Z,17.27
2019-05-20T11:30:50.474Z,15.85
2019-05-20T11:33:20.097Z,17.70
2019-05-20T11:35:49.747Z,17.20
2019-05-20T11:38:19.448Z,17.07
2019-05-20T11:40:49.181Z,16.70
2019-05-20T11:43:18.942Z,18.80
2019-05-20T11:45:48.610Z,17.92
2019-05-20T11:48:18.233Z,19.48
2019-05-20T11:50:47.862Z,19.90
2019-05-20T11:53:17.760Z,18.70
2019-05-20T11:55:47.392Z,18.02
2019-05-20T11:58:17.050Z,18.52
2019-05-20T12:00:46.741Z,18.42
2019-05-20T12:03:16.394Z,19.17
2019-05-20T12:05:46.117Z,18.92
2019-05-20T12:08:15.754Z,19.35
2019-05-20T12:10:45.846Z,19.90
2019-05-20T12:13:15.503Z,21.33
2019-05-20T12:15:45.130Z,22.42
2019-05-20T12:18:14.792Z,23.32
2019-05-20T12:20:48.543Z,25.15
2019-05-20T12:23:18.168Z,22.02
2019-05-20T12:25:47.890Z,22.58
2019-05-20T12:28:17.510Z,20.40
2019-05-20T12:30:47.168Z,24.65
2019-05-20T12:33:19.067Z,25.30
2019-05-20T12:35:48.177Z,26.48
2019-05-20T12:38:17.814Z,23.25
2019-05-20T12:40:47.456Z,22.52
2019-05-20T12:43:17.078Z,25.20
2019-05-20T12:45:46.796Z,26.10
2019-05-20T12:48:16.421Z,24.27
2019-05-20T12:50:46.073Z,28.47
2019-05-20T12:53:15.700Z,26.15
2019-05-20T12:55:45.422Z,25.70
2019-05-20T12:58:15.045Z,25.75
2019-05-20T13:00:44.970Z,27.48
2019-05-20T13:03:14.599Z,25.65
2019-05-20T13:05:44.237Z,25.27
2019-05-20T13:08:13.909Z,26.73
2019-05-20T13:10:43.527Z,26.65
2019-05-20T13:13:13.180Z,28.62
2019-05-20T13:15:42.812Z,27.85
2019-05-20T13:18:12.452Z,26.25
2019-05-20T13:20:42.089Z,28.42
2019-05-20T13:23:13.924Z,25.10
2019-05-20T13:25:43.126Z,25.00
2019-05-20T13:28:12.795Z,27.42
2019-05-20T13:30:42.426Z,26.17
2019-05-20T13:33:12.122Z,27.45
2019-05-20T13:35:41.773Z,25.97
2019-05-20T13:38:11.409Z,29.57
2019-05-20T13:40:46.223Z,29.65
2019-05-20T13:43:12.412Z,26.33
2019-05-20T13:45:42.063Z,23.80
2019-05-20T13:48:11.692Z,21.45
2019-05-20T13:50:41.366Z,22.25
2019-05-20T13:53:10.981Z,21.27
2019-05-20T13:55:40.634Z,20.60
2019-05-20T13:58:10.333Z,21.35
2019-05-20T14:00:39.967Z,20.30
2019-05-20T14:03:09.688Z,20.85
2019-05-20T14:05:39.315Z,22.37
2019-05-20T14:08:09.029Z,21.23
2019-05-20T14:10:38.782Z,20.65
2019-05-20T14:13:08.431Z,22.73
2019-05-20T14:15:38.092Z,23.40
2019-05-20T14:18:07.848Z,22.67
2019-05-20T14:20:37.476Z,22.10
2019-05-20T14:23:07.098Z,22.15
2019-05-20T14:25:36.745Z,22.07
2019-05-20T14:28:06.449Z,24.32
2019-05-20T14:30:36.180Z,22.15
2019-05-20T14:33:05.797Z,21.52
2019-05-20T14:35:35.441Z,22.85
2019-05-20T14:38:05.071Z,23.85
2019-05-20T14:40:34.750Z,24.23
2019-05-20T14:43:04.378Z,23.25
2019-05-20T14:45:34.022Z,26.42
2019-05-20T14:48:03.791Z,23.65
2019-05-20T14:50:33.564Z,22.90
2019-05-20T14:53:03.226Z,21.87
2019-05-20T14:55:41.834Z,27.10
2019-05-20T14:58:04.269Z,20.88
2019-05-20T15:00:33.901Z,21.42
2019-05-20T15:03:03.544Z,22.42
2019-05-20T15:05:33.219Z,23.20
2019-05-20T15:08:02.941Z,22.20
2019-05-20T15:10:32.833Z,21.57
2019-05-20T15:13:04.517Z,21.65
2019-05-20T15:15:34.749Z,20.82
2019-05-20T15:18:04.419Z,20.65
2019-05-20T15:20:34.075Z,20.80
2019-05-20T15:23:05.461Z,24.40
2019-05-20T15:25:35.215Z,21.87
2019-05-20T15:28:04.931Z,23.90
2019-05-20T15:30:34.584Z,23.10
2019-05-20T15:33:07.081Z,23.90
2019-05-20T15:35:36.741Z,22.30
2019-05-20T15:38:06.387Z,22.45
2019-05-20T15:40:36.023Z,23.07
2019-05-20T15:43:05.807Z,23.32
2019-05-20T15:45:35.429Z,21.70
2019-05-20T15:48:05.153Z,24.82
2019-05-20T15:50:34.780Z,24.47
2019-05-20T15:53:04.516Z,22.15
2019-05-20T15:55:34.211Z,21.55
2019-05-20T15:58:04.030Z,22.75
2019-05-20T16:00:33.928Z,23.00
2019-05-20T16:03:03.585Z,22.07
2019-05-20T16:05:33.281Z,23.18
2019-05-20T16:08:03.691Z,24.30
2019-05-20T16:10:33.374Z,24.57
2019-05-20T16:13:03.076Z,22.67
2019-05-20T16:15:32.727Z,19.95
2019-05-20T16:18:02.463Z,20.90
2019-05-20T16:20:32.359Z,25.10
2019-05-20T16:23:01.995Z,22.27
2019-05-20T16:25:31.644Z,21.55
2019-05-20T16:28:01.276Z,22.05
2019-05-20T16:30:30.928Z,23.00
2019-05-20T16:33:00.636Z,20.50
2019-05-20T16:35:30.328Z,21.75
2019-05-20T16:37:59.988Z,21.90
2019-05-20T16:40:29.621Z,21.55
2019-05-20T16:42:59.296Z,21.77
2019-05-20T16:45:28.919Z,20.65
2019-05-20T16:47:58.569Z,23.22
2019-05-20T16:50:28.197Z,22.82
2019-05-20T16:52:57.912Z,21.12
2019-05-20T16:55:27.559Z,22.17
2019-05-20T16:57:57.212Z,20.45
2019-05-20T17:00:32.201Z,23.22
2019-05-20T17:02:58.370Z,23.27
2019-05-20T17:05:27.999Z,24.07
2019-05-20T17:07:57.623Z,23.73
2019-05-20T17:10:27.268Z,23.12
2019-05-20T17:12:56.966Z,21.73
2019-05-20T17:15:26.620Z,22.98
2019-05-20T17:17:56.244Z,23.73
2019-05-20T17:20:25.974Z,23.80
2019-05-20T17:22:55.595Z,23.27
2019-05-20T17:25:25.359Z,24.07
2019-05-20T17:27:55.176Z,24.37
2019-05-20T17:30:24.940Z,22.85
2019-05-20T17:32:54.600Z,24.40
2019-05-20T17:35:24.237Z,24.35
2019-05-20T17:37:55.307Z,25.85
2019-05-20T17:40:25.339Z,25.55
2019-05-20T17:42:55.059Z,25.17
2019-05-20T17:45:24.691Z,25.80
2019-05-20T17:47:54.440Z,23.00
2019-05-20T17:50:24.210Z,23.20
2019-05-20T17:52:53.885Z,24.32
2019-05-20T17:55:23.772Z,24.63
2019-05-20T17:57:54.094Z,23.75
2019-05-20T18:00:23.944Z,22.48
2019-05-20T18:02:53.781Z,24.07
2019-05-20T18:05:23.507Z,22.35
2019-05-20T18:07:53.201Z,22.48
2019-05-20T18:10:24.497Z,23.27
2019-05-20T18:12:54.202Z,22.37
2019-05-20T18:15:24.066Z,21.48
2019-05-20T18:17:53.691Z,22.87
2019-05-20T18:20:23.556Z,23.38
2019-05-20T18:22:53.187Z,22.95
2019-05-20T18:25:22.865Z,24.18
2019-05-20T18:27:52.607Z,22.62
2019-05-20T18:30:22.566Z,24.70
2019-05-20T18:32:52.222Z,24.82
2019-05-20T18:35:21.990Z,24.25
2019-05-20T18:37:51.650Z,22.98
2019-05-20T18:40:21.480Z,24.72
2019-05-20T18:42:51.131Z,23.27
2019-05-20T18:45:20.840Z,25.85
2019-05-20T18:47:50.547Z,23.75
2019-05-20T18:50:20.484Z,24.90
2019-05-20T18:52:50.139Z,25.97
2019-05-20T18:55:19.940Z,25.20
2019-05-20T18:57:49.678Z,25.35
2019-05-20T19:00:19.673Z,24.82
2019-05-20T19:02:49.305Z,23.65
2019-05-20T19:05:19.192Z,24.25
2019-05-20T19:07:49.096Z,25.10
2019-05-20T19:10:19.095Z,25.97
2019-05-20T19:12:48.742Z,26.80
2019-05-20T19:15:18.641Z,27.00
2019-05-20T19:17:48.272Z,26.42
2019-05-20T19:20:17.988Z,26.17
2019-05-20T19:22:47.616Z,27.98
2019-05-20T19:25:17.354Z,26.30
2019-05-20T19:27:46.976Z,31.62
2019-05-20T19:30:17.507Z,28.70
2019-05-20T19:32:47.151Z,28.52
2019-05-20T19:35:16.848Z,28.45
2019-05-20T19:37:46.535Z,30.95
2019-05-20T19:40:16.399Z,31.02
2019-05-20T19:42:46.075Z,31.73
2019-05-20T19:45:15.935Z,32.80
2019-05-20T19:47:45.667Z,31.93
2019-05-20T19:50:17.359Z,32.15
2019-05-20T19:52:47.405Z,33.65
2019-05-20T19:55:18.949Z,31.83
2019-05-20T19:57:48.585Z,31.12
2019-05-20T20:00:18.655Z,30.68
2019-05-20T20:02:48.280Z,33.28
2019-05-20T20:05:18.036Z,34.00
2019-05-20T20:07:47.672Z,33.90
2019-05-20T20:10:17.462Z,33.98
2019-05-20T20:12:47.092Z,34.50
2019-05-20T20:15:20.805Z,34.60
2019-05-20T20:17:50.493Z,34.85
2019-05-20T20:20:20.152Z,32.17
2019-05-20T20:22:49.785Z,35.75
2019-05-20T20:25:19.662Z,36.48
2019-05-20T20:27:49.281Z,36.88
2019-05-20T20:30:19.313Z,37.45
2019-05-20T20:32:48.977Z,36.75
2019-05-20T20:35:18.813Z,38.00
2019-05-20T20:37:48.483Z,37.55
2019-05-20T20:40:18.941Z,37.65
2019-05-20T20:42:48.609Z,37.65
2019-05-20T20:45:18.386Z,36.55
2019-05-20T20:47:48.013Z,36.60
2019-05-20T20:50:18.578Z,36.93
2019-05-20T20:52:48.280Z,37.50
2019-05-20T20:55:18.005Z,37.05
2019-05-20T20:57:47.625Z,33.85
2019-05-20T21:00:17.784Z,34.27
2019-05-20T21:02:53.094Z,34.05
2019-05-20T21:05:19.165Z,31.65
2019-05-20T21:07:51.669Z,29.32
2019-05-20T21:10:20.288Z,31.33
2019-05-20T21:12:49.935Z,29.12
2019-05-20T21:15:19.560Z,32.28
2019-05-20T21:17:49.219Z,29.72
2019-05-20T21:20:18.837Z,29.90
2019-05-20T21:22:48.487Z,29.92
2019-05-20T21:25:18.187Z,28.00
2019-05-20T21:27:47.836Z,28.77
2019-05-20T21:30:17.604Z,27.40
2019-05-20T21:32:47.267Z,27.40
2019-05-20T21:35:16.897Z,26.95
2019-05-20T21:37:46.545Z,24.77
2019-05-20T21:40:16.373Z,25.48
2019-05-20T21:42:45.996Z,26.33
2019-05-20T21:45:15.863Z,25.25
2019-05-20T21:47:45.488Z,23.62
2019-05-20T21:50:15.353Z,24.18
2019-05-20T21:52:44.976Z,25.00
2019-05-20T21:55:14.845Z,23.20
2019-05-20T21:57:44.474Z,25.27
2019-05-20T22:00:19.050Z,24.43
2019-05-20T22:02:48.756Z,25.32
2019-05-20T22:05:18.455Z,25.52
2019-05-20T22:07:48.114Z,23.75
2019-05-20T22:10:17.808Z,24.60
2019-05-20T22:12:47.463Z,24.87
2019-05-20T22:15:17.091Z,26.80
2019-05-20T22:17:46.814Z,24.65
2019-05-20T22:20:16.750Z,25.77
2019-05-20T22:22:46.245Z,23.70
2019-05-20T22:25:15.936Z,25.65
2019-05-20T22:27:45.572Z,24.40
2019-05-20T22:30:15.767Z,27.37
2019-05-20T22:32:45.391Z,25.08
2019-05-20T22:35:15.119Z,24.07
2019-05-20T22:37:44.760Z,23.65
2019-05-20T22:40:14.709Z,25.15
2019-05-20T22:42:44.334Z,24.87
2019-05-20T22:45:14.146Z,25.32
2019-05-20T22:47:43.760Z,23.57
2019-05-20T22:50:13.413Z,23.18
2019-05-20T22:52:43.050Z,23.98
2019-05-20T22:55:12.892Z,23.02
2019-05-20T22:57:42.583Z,20.48
2019-05-20T23:00:12.614Z,19.73
2019-05-20T23:02:42.340Z,20.25
2019-05-20T23:05:12.175Z,19.75
2019-05-20T23:07:41.829Z,19.70
2019-05-20T23:10:11.992Z,18.73
2019-05-20T23:12:41.709Z,17.92
2019-05-20T23:15:12.254Z,17.30
2019-05-20T23:17:41.966Z,16.37
2019-05-20T23:20:11.746Z,16.57
2019-05-20T23:22:41.394Z,16.37
2019-05-20T23:25:11.331Z,16.10
2019-05-20T23:27:40.991Z,14.73
2019-05-20T23:30:11.332Z,14.85
2019-05-20T23:32:40.957Z,14.38
2019-05-20T23:35:11.115Z,14.38
2019-05-20T23:37:40.740Z,11.83
2019-05-20T23:40:11.409Z,11.00
2019-05-20T23:42:41.039Z,9.83
2019-05-20T23:45:11.586Z,8.35
2019-05-20T23:47:41.210Z,8.70
2019-05-20T23:50:11.306Z,7.80
2019-05-20T23:52:40.922Z,8.70
2019-05-20T23:55:11.173Z,8.55
2019-05-20T23:57:40.802Z,8.60
